Terminal Aerodrome Forecast
Issued by NWS Knoxville/Tri Cities, TN

Home | Current Version | Previous Version | Text Only | Print | Product List | Glossary On
Versions: 1 2 3 4 5 6 7 8 9 10 11 12 13 14 15 16 17 18 19 20 21 22 23 24 25 26 27 28 29 30 31 32
000
FTUS44 KMRX 171720
TAFTRI
TAF
KTRI 171720Z 1718/1818 23012KT 6SM BR BKN040
     FM180300 25010KT 6SM -SHRA BR SCT007 OVC012
     FM181100 26010KT P6SM OVC010
     FM181700 27005KT P6SM OVC050=

USA.gov is the U.S. government's official web portal to all federal, state and local government web resources and services.